Time;durP1;ratioP1;P1;durP2;ratioP2;P2;SDS_P1;SDS_P2;PMS_P1;PMS_P2;Temp;Humidity;BMP_temperature;BMP_pressure;BME280_temperature;BME280_humidity;BME280_pressure;Samples;Min_cycle;Max_cycle;Signal;HPM_P1;HPM_P2
2021/03/20 00:01:58;;;;;;;389.08;241.38;;;1.30;99.90;;;;;;4986716;28;20113;-73
2021/03/20 00:04:24;;;;;;;424.27;260.13;;;1.20;99.90;;;;;;4984699;28;20027;-68
2021/03/20 00:06:54;;;;;;;439.27;267.15;;;1.20;99.90;;;;;;4987306;28;20106;-70
2021/03/20 00:09:26;;;;;;;428.10;263.20;;;1.10;99.90;;;;;;4986388;28;20033;-74
2021/03/20 00:11:54;;;;;;;459.75;279.00;;;1.00;99.90;;;;;;4985352;28;20026;-66
2021/03/20 00:14:22;;;;;;;430.00;262.58;;;1.00;99.90;;;;;;4986302;28;20125;-74
2021/03/20 00:16:48;;;;;;;423.50;253.55;;;1.00;99.90;;;;;;4985633;28;20046;-74
2021/03/20 00:19:16;;;;;;;415.38;252.88;;;1.00;99.90;;;;;;4987419;28;20027;-71
2021/03/20 00:21:42;;;;;;;426.83;259.15;;;1.00;99.90;;;;;;4986385;28;20389;-64
2021/03/20 00:24:08;;;;;;;415.25;249.65;;;0.90;99.90;;;;;;4985055;28;20038;-67
2021/03/20 00:26:35;;;;;;;398.38;242.45;;;0.80;99.90;;;;;;4984440;28;20501;-66
2021/03/20 00:29:02;;;;;;;373.92;219.73;;;0.80;99.90;;;;;;4985948;28;20023;-74
2021/03/20 00:31:29;;;;;;;377.25;232.43;;;0.90;99.90;;;;;;4982491;28;20019;-74
2021/03/20 00:33:54;;;;;;;362.30;215.48;;;0.70;99.90;;;;;;4984552;28;20027;-74
2021/03/20 00:36:21;;;;;;;344.75;207.52;;;0.70;99.90;;;;;;4984638;28;20026;-73
2021/03/20 00:38:48;;;;;;;311.10;190.05;;;0.70;99.90;;;;;;4985488;28;20022;-71
2021/03/20 00:41:14;;;;;;;273.60;164.13;;;0.80;99.90;;;;;;4985703;28;20169;-65
2021/03/20 00:43:41;;;;;;;251.55;151.80;;;0.70;99.90;;;;;;4986192;28;20082;-74
2021/03/20 00:46:08;;;;;;;281.35;167.85;;;0.80;99.90;;;;;;4984898;28;20023;-73
2021/03/20 00:48:37;;;;;;;275.83;164.88;;;0.80;99.90;;;;;;4982577;28;20113;-74
2021/03/20 00:51:03;;;;;;;238.15;137.43;;;0.80;99.90;;;;;;4984103;28;20051;-68
2021/03/20 00:53:33;;;;;;;245.13;142.90;;;0.90;99.90;;;;;;4983832;28;20089;-73
2021/03/20 00:56:00;;;;;;;246.68;147.30;;;0.80;99.90;;;;;;4985231;28;20018;-74
2021/03/20 00:58:41;;;;;;;258.42;147.60;;;0.80;99.90;;;;;;4981670;28;20023;-67
2021/03/20 01:01:15;;;;;;;245.80;146.90;;;0.80;99.90;;;;;;4981342;28;20054;-73
2021/03/20 01:03:42;;;;;;;256.25;151.25;;;0.80;99.90;;;;;;4983925;28;20023;-70
2021/03/20 01:06:14;;;;;;;273.95;160.40;;;0.90;99.90;;;;;;4981806;28;20023;-74
2021/03/20 01:08:41;;;;;;;333.40;197.48;;;1.00;99.90;;;;;;4982134;28;20031;-65
2021/03/20 01:11:08;;;;;;;289.45;183.70;;;0.80;99.90;;;;;;4982841;28;20015;-74
2021/03/20 01:13:34;;;;;;;270.33;168.65;;;0.70;99.90;;;;;;4979994;28;20034;-68
2021/03/20 01:16:00;;;;;;;243.07;148.82;;;0.60;99.90;;;;;;4983061;28;20492;-65
2021/03/20 01:18:26;;;;;;;224.70;136.60;;;0.70;99.90;;;;;;4983465;28;20018;-65
2021/03/20 01:20:53;;;;;;;210.10;126.97;;;0.90;99.90;;;;;;4980982;28;20082;-73
2021/03/20 01:23:19;;;;;;;211.20;124.75;;;1.00;99.90;;;;;;4978407;28;20030;-73
2021/03/20 01:25:45;;;;;;;244.15;134.88;;;1.00;99.90;;;;;;4982197;28;20042;-67
2021/03/20 01:28:11;;;;;;;211.30;118.82;;;0.80;99.90;;;;;;4982550;28;20019;-65
2021/03/20 01:30:41;;;;;;;213.60;119.10;;;0.80;99.90;;;;;;4980884;28;20023;-65
2021/03/20 01:33:08;;;;;;;234.27;134.98;;;0.90;99.90;;;;;;4981818;28;20576;-73
2021/03/20 01:35:34;;;;;;;211.00;121.35;;;0.70;99.90;;;;;;4979827;28;20085;-67
2021/03/20 01:38:02;;;;;;;222.52;128.60;;;0.70;99.90;;;;;;4979439;28;20035;-65
2021/03/20 01:40:37;;;;;;;220.52;125.20;;;0.60;99.90;;;;;;4978955;28;20055;-73
2021/03/20 01:43:04;;;;;;;214.80;120.75;;;0.50;99.90;;;;;;4982569;28;20035;-73
2021/03/20 01:45:33;;;;;;;213.90;117.53;;;0.50;99.90;;;;;;4978356;28;20026;-65
2021/03/20 01:48:12;;;;;;;243.90;139.52;;;0.60;99.90;;;;;;4979893;28;20389;-74
2021/03/20 01:50:49;;;;;;;186.23;111.72;;;0.70;99.90;;;;;;4980528;28;20050;-73
2021/03/20 01:53:34;;;;;;;175.93;106.65;;;0.70;99.90;;;;;;4982465;28;20170;-72
2021/03/20 01:56:03;;;;;;;158.30;98.13;;;0.70;99.90;;;;;;4981568;28;20109;-72
2021/03/20 01:58:30;;;;;;;158.10;96.70;;;0.80;99.90;;;;;;4981076;28;20041;-67
2021/03/20 02:01:09;;;;;;;156.18;95.72;;;0.80;99.90;;;;;;4981063;28;20023;-73
2021/03/20 02:03:36;;;;;;;144.85;89.50;;;0.90;99.90;;;;;;4981871;28;20023;-65
2021/03/20 02:06:03;;;;;;;144.90;89.72;;;0.80;99.90;;;;;;4980304;28;20070;-65
2021/03/20 02:08:29;;;;;;;131.13;82.10;;;0.70;99.90;;;;;;4981348;28;20023;-74
2021/03/20 02:11:02;;;;;;;136.85;85.00;;;0.80;99.90;;;;;;4978024;28;20429;-74
2021/03/20 02:13:31;;;;;;;133.65;82.00;;;0.70;99.90;;;;;;4977822;28;20034;-73
2021/03/20 02:16:08;;;;;;;143.77;87.38;;;0.70;99.90;;;;;;4977282;28;20061;-73
2021/03/20 02:18:56;;;;;;;172.65;103.07;;;0.70;99.90;;;;;;4977548;28;20025;-74
2021/03/20 02:21:50;;;;;;;181.73;111.35;;;0.70;99.90;;;;;;4979223;28;20038;-68
2021/03/20 02:24:34;;;;;;;169.10;101.93;;;0.70;99.90;;;;;;4978196;28;20066;-74
2021/03/20 02:27:37;;;;;;;177.55;107.75;;;0.70;99.90;;;;;;4979684;28;20034;-68
2021/03/20 02:30:16;;;;;;;159.85;96.57;;;0.60;99.90;;;;;;4980761;28;20027;-66
2021/03/20 02:33:06;;;;;;;231.07;102.53;;;0.50;99.90;;;;;;4978747;28;20426;-66
2021/03/20 02:35:56;;;;;;;167.80;93.05;;;0.40;99.90;;;;;;4978967;28;20029;-74
2021/03/20 02:38:42;;;;;;;204.70;94.80;;;0.30;99.90;;;;;;4979251;28;20023;-72
2021/03/20 02:41:40;;;;;;;291.52;96.70;;;0.20;99.90;;;;;;4981648;28;20035;-68
2021/03/20 02:44:30;;;;;;;190.32;94.00;;;0.10;99.90;;;;;;4937610;29;20443;-66
2021/03/20 02:47:05;;;;;;;236.32;104.68;;;0.00;99.90;;;;;;4941116;29;20035;-73
2021/03/20 02:49:51;;;;;;;205.90;111.82;;;0.00;99.90;;;;;;4940548;29;20036;-70
2021/03/20 02:52:23;;;;;;;171.85;99.80;;;-0.10;99.90;;;;;;4941243;29;20391;-66
2021/03/20 02:55:03;;;;;;;160.23;93.78;;;-0.10;99.90;;;;;;4939853;29;20044;-65
2021/03/20 02:57:51;;;;;;;138.55;84.03;;;-0.10;99.90;;;;;;4923883;29;20024;-65
2021/03/20 03:00:26;;;;;;;130.02;75.28;;;-0.10;99.90;;;;;;4940043;29;20036;-71
2021/03/20 03:02:54;;;;;;;130.65;78.25;;;-0.10;99.90;;;;;;4939009;29;20067;-70
2021/03/20 03:05:25;;;;;;;142.65;80.75;;;-0.10;99.90;;;;;;4939729;29;20028;-68
2021/03/20 03:07:56;;;;;;;132.65;79.35;;;-0.10;99.90;;;;;;4920406;29;20078;-70
2021/03/20 03:10:44;;;;;;;124.30;75.18;;;-0.20;99.90;;;;;;4938528;29;20035;-68
2021/03/20 03:13:20;;;;;;;109.30;62.83;;;-0.20;99.90;;;;;;4937323;29;20076;-69
2021/03/20 03:15:53;;;;;;;96.60;59.65;;;-0.30;99.90;;;;;;4936910;29;20110;-73
2021/03/20 03:18:40;;;;;;;93.32;55.85;;;-0.20;99.90;;;;;;4937951;29;20023;-74
2021/03/20 03:21:09;;;;;;;122.85;74.57;;;-0.10;99.90;;;;;;4961356;28;20041;-73
2021/03/20 03:23:40;;;;;;;124.82;75.72;;;-0.10;99.90;;;;;;4977976;28;20102;-68
2021/03/20 03:26:31;;;;;;;169.20;107.50;;;0.10;99.90;;;;;;4980226;28;20424;-73
2021/03/20 03:29:17;;;;;;;128.27;81.78;;;0.10;99.90;;;;;;4974050;28;20035;-67
2021/03/20 03:31:54;;;;;;;106.40;65.32;;;0.10;99.90;;;;;;4976349;28;20483;-73
2021/03/20 03:34:44;;;;;;;110.65;65.90;;;0.10;99.90;;;;;;4977837;28;20030;-72
2021/03/20 03:37:35;;;;;;;99.78;61.50;;;0.10;99.90;;;;;;4977209;28;20051;-67
2021/03/20 03:40:18;;;;;;;110.75;66.40;;;0.10;99.90;;;;;;4976635;28;20090;-68
2021/03/20 03:42:48;;;;;;;108.28;64.43;;;0.10;99.90;;;;;;4978677;28;20393;-67
2021/03/20 03:45:15;;;;;;;114.22;67.82;;;0.00;99.90;;;;;;4977999;28;20023;-71
2021/03/20 03:47:44;;;;;;;163.57;93.50;;;0.00;99.90;;;;;;4976328;28;20034;-65
2021/03/20 03:50:15;;;;;;;152.88;91.10;;;0.00;99.90;;;;;;4978188;28;20039;-74
2021/03/20 03:52:42;;;;;;;185.90;104.00;;;-0.10;99.90;;;;;;4977335;28;20031;-67
2021/03/20 03:55:08;;;;;;;160.13;93.00;;;0.00;99.90;;;;;;4977996;28;20022;-74
2021/03/20 03:57:55;;;;;;;179.35;101.93;;;0.10;99.90;;;;;;4977578;28;20094;-66
2021/03/20 04:00:42;;;;;;;181.70;108.03;;;0.10;99.90;;;;;;4976696;28;20473;-74
2021/03/20 04:03:46;;;;;;;141.10;82.53;;;0.10;99.90;;;;;;4979612;28;20545;-69
2021/03/20 04:06:49;;;;;;;156.50;86.85;;;0.20;99.90;;;;;;4979630;28;20029;-64
2021/03/20 04:09:33;;;;;;;120.75;70.78;;;0.20;99.90;;;;;;4976479;28;20031;-68
2021/03/20 04:12:18;;;;;;;126.70;79.35;;;0.20;99.90;;;;;;4978860;28;20478;-65
2021/03/20 04:15:09;;;;;;;139.75;80.63;;;0.20;99.90;;;;;;4980164;28;20054;-73
2021/03/20 04:18:12;;;;;;;123.90;71.95;;;0.10;99.90;;;;;;4978014;28;20109;-67
2021/03/20 04:20:58;;;;;;;147.50;86.57;;;0.10;99.90;;;;;;4977411;28;20038;-74
2021/03/20 04:23:57;;;;;;;150.05;89.35;;;0.10;99.90;;;;;;4977106;28;20433;-73
2021/03/20 04:26:35;;;;;;;139.40;80.80;;;0.10;99.90;;;;;;4940200;29;20103;-66
2021/03/20 04:29:14;;;;;;;174.60;98.63;;;0.10;99.90;;;;;;4940868;29;20039;-73
2021/03/20 04:31:51;;;;;;;166.50;93.22;;;0.10;99.90;;;;;;4938994;29;20079;-66
2021/03/20 04:34:42;;;;;;;153.25;89.38;;;0.00;99.90;;;;;;4942900;29;20504;-72
2021/03/20 04:37:16;;;;;;;190.05;97.03;;;0.00;99.90;;;;;;4944640;29;20043;-65
2021/03/20 04:39:45;;;;;;;197.32;97.50;;;-0.10;99.90;;;;;;4940145;29;20482;-74
2021/03/20 04:42:26;;;;;;;167.13;89.35;;;-0.10;99.90;;;;;;4941017;29;20024;-73
2021/03/20 04:44:53;;;;;;;143.48;80.32;;;0.00;99.90;;;;;;4942498;29;20534;-72
2021/03/20 04:47:27;;;;;;;185.23;110.22;;;0.00;99.90;;;;;;4939326;29;20367;-73
2021/03/20 04:49:55;;;;;;;162.60;96.70;;;0.10;99.90;;;;;;4941105;29;20027;-64
2021/03/20 04:52:28;;;;;;;153.57;94.30;;;0.10;99.90;;;;;;4937630;29;20442;-66
2021/03/20 04:54:54;;;;;;;144.40;86.53;;;0.10;99.90;;;;;;4942062;29;20039;-72
2021/03/20 04:57:37;;;;;;;146.27;85.80;;;0.10;99.90;;;;;;4926258;29;20393;-73
2021/03/20 05:00:14;;;;;;;126.82;76.90;;;0.00;99.90;;;;;;4941613;29;20489;-66
2021/03/20 05:02:51;;;;;;;133.02;78.60;;;0.00;99.90;;;;;;4949974;29;20054;-71
2021/03/20 05:05:38;;;;;;;134.40;84.45;;;0.00;99.90;;;;;;4961345;28;20030;-73
2021/03/20 05:08:14;;;;;;;204.25;118.10;;;-0.20;99.90;;;;;;4959848;28;20027;-73
2021/03/20 05:10:57;;;;;;;210.38;121.10;;;-0.10;99.90;;;;;;4960578;28;20489;-67
2021/03/20 05:13:39;;;;;;;203.95;117.43;;;0.00;99.90;;;;;;4963449;29;20091;-70
2021/03/20 05:16:17;;;;;;;160.18;93.50;;;0.00;99.90;;;;;;4960928;29;20027;-67
2021/03/20 05:18:49;;;;;;;172.50;92.05;;;0.10;99.90;;;;;;4962815;29;20027;-73
2021/03/20 05:21:21;;;;;;;228.50;101.72;;;0.00;99.90;;;;;;4960118;28;20059;-67
2021/03/20 05:23:47;;;;;;;287.75;116.50;;;0.00;99.90;;;;;;4960971;28;20075;-73
2021/03/20 05:26:14;;;;;;;224.90;113.40;;;-0.10;99.90;;;;;;4962875;28;20023;-69
2021/03/20 05:28:40;;;;;;;220.65;112.38;;;0.00;99.90;;;;;;4960680;29;20089;-67
2021/03/20 05:31:06;;;;;;;241.35;121.15;;;0.10;99.90;;;;;;4961952;29;20106;-67
2021/03/20 05:33:34;;;;;;;237.30;118.25;;;0.10;99.90;;;;;;4963834;29;20028;-69
2021/03/20 05:36:00;;;;;;;237.70;111.65;;;0.10;99.90;;;;;;4959699;28;20027;-72
2021/03/20 05:38:26;;;;;;;344.85;126.38;;;0.10;99.90;;;;;;4960596;29;20028;-73
2021/03/20 05:41:00;;;;;;;533.58;129.18;;;0.20;99.90;;;;;;4958077;29;20023;-68
2021/03/20 05:43:54;;;;;;;731.72;128.68;;;0.10;99.90;;;;;;4958964;28;20051;-74
2021/03/20 05:47:07;;;;;;;813.42;146.68;;;0.20;99.90;;;;;;4958067;29;20485;-74
2021/03/20 05:50:02;;;;;;;1154.78;316.60;;;0.10;99.90;;;;;;4957711;29;20027;-73
2021/03/20 05:52:38;;;;;;;753.70;206.52;;;0.10;99.90;;;;;;4959413;29;20053;-72
2021/03/20 05:55:39;;;;;;;474.77;151.93;;;0.10;99.90;;;;;;4959243;28;20035;-66
2021/03/20 05:58:20;;;;;;;493.80;187.18;;;0.10;99.90;;;;;;4961315;29;20536;-70
2021/03/20 06:00:49;;;;;;;497.95;196.90;;;0.20;99.90;;;;;;4960202;29;20126;-73
2021/03/20 06:03:37;;;;;;;402.20;195.43;;;0.20;99.90;;;;;;4959569;29;20039;-74
2021/03/20 06:06:31;;;;;;;297.90;148.07;;;0.30;99.90;;;;;;4959303;29;20115;-73
2021/03/20 06:09:18;;;;;;;304.60;155.10;;;0.30;99.90;;;;;;4957963;29;20386;-73
2021/03/20 06:11:56;;;;;;;286.90;146.45;;;0.50;99.90;;;;;;4960659;28;20110;-74
2021/03/20 06:14:59;;;;;;;273.42;142.02;;;0.60;99.90;;;;;;4957668;29;20055;-67
2021/03/20 06:17:55;;;;;;;336.40;174.40;;;0.60;99.90;;;;;;4958648;29;20019;-74
2021/03/20 06:20:33;;;;;;;349.17;174.95;;;0.70;99.90;;;;;;4961616;29;20047;-72
2021/03/20 06:23:19;;;;;;;409.58;226.77;;;0.80;99.90;;;;;;4961246;28;20105;-71
2021/03/20 06:25:54;;;;;;;364.05;206.38;;;0.90;99.90;;;;;;4961500;29;20031;-66
2021/03/20 06:28:22;;;;;;;;;;;1.10;99.90;;;;;;4957999;29;20028;-69
2021/03/20 06:30:54;;;;;;;405.52;243.50;;;1.10;99.90;;;;;;4961195;28;19906;-74
2021/03/20 06:33:37;;;;;;;382.55;232.23;;;1.20;99.90;;;;;;4961448;28;20046;-68
2021/03/20 06:36:12;;;;;;;435.10;280.20;;;1.30;99.90;;;;;;4960149;28;20051;-68
2021/03/20 06:39:19;;;;;;;452.95;285.02;;;1.40;99.90;;;;;;4957655;29;20037;-71
2021/03/20 06:42:07;;;;;;;399.13;244.77;;;1.30;99.90;;;;;;4937190;29;20091;-64
2021/03/20 06:44:41;;;;;;;325.13;186.32;;;1.30;99.90;;;;;;4939470;29;20040;-65
2021/03/20 06:47:17;;;;;;;336.50;197.13;;;1.40;99.90;;;;;;4936546;29;20489;-68
2021/03/20 06:50:01;;;;;;;184.95;117.03;;;1.40;99.90;;;;;;4938851;29;20047;-73
2021/03/20 06:52:28;;;;;;;216.02;152.18;;;1.50;99.90;;;;;;4939692;29;20058;-70
2021/03/20 06:55:00;;;;;;;193.18;121.03;;;1.40;99.90;;;;;;4940967;29;20028;-72
2021/03/20 06:57:27;;;;;;;251.23;149.38;;;1.50;99.90;;;;;;4939577;29;20486;-71
2021/03/20 06:59:56;;;;;;;230.88;145.10;;;1.60;99.90;;;;;;4938851;29;20032;-73
2021/03/20 07:03:06;;;;;;;203.32;127.78;;;1.50;99.90;;;;;;4937348;29;20023;-72
2021/03/20 07:05:58;;;;;;;232.60;148.10;;;1.70;99.90;;;;;;4936201;29;20044;-73
2021/03/20 07:08:29;;;;;;;164.70;104.65;;;1.90;99.90;;;;;;4939378;29;20521;-73
2021/03/20 07:10:56;;;;;;;196.55;124.72;;;2.20;99.90;;;;;;4937711;29;20045;-74
2021/03/20 07:13:25;;;;;;;159.50;104.80;;;2.30;99.90;;;;;;4935965;29;20036;-67
2021/03/20 07:16:09;;;;;;;149.85;98.40;;;2.50;99.90;;;;;;4936406;29;20023;-67
2021/03/20 07:18:58;;;;;;;150.27;97.50;;;2.70;99.90;;;;;;4955006;29;20362;-72
2021/03/20 07:21:34;;;;;;;153.55;103.10;;;2.90;99.90;;;;;;4957952;28;20019;-66
2021/03/20 07:24:05;;;;;;;152.60;104.90;;;2.90;99.90;;;;;;4958645;28;20027;-66
2021/03/20 07:26:47;;;;;;;137.88;93.53;;;2.80;99.90;;;;;;4956526;28;20507;-64
2021/03/20 07:29:13;;;;;;;126.72;85.13;;;2.90;99.90;;;;;;4958507;28;20034;-72
2021/03/20 07:31:57;;;;;;;115.40;78.93;;;2.90;99.90;;;;;;4956437;28;20024;-72
2021/03/20 07:34:29;;;;;;;103.38;70.40;;;3.10;99.90;;;;;;4958480;28;20027;-73
2021/03/20 07:37:18;;;;;;;103.95;73.72;;;3.20;99.90;;;;;;4958038;28;20082;-72
2021/03/20 07:39:59;;;;;;;117.38;78.13;;;2.90;99.90;;;;;;4956376;28;20043;-66
2021/03/20 07:42:35;;;;;;;113.15;80.32;;;2.80;99.90;;;;;;4958809;28;20078;-72
2021/03/20 07:45:16;;;;;;;123.47;84.50;;;2.80;99.90;;;;;;4956789;28;20023;-64
2021/03/20 07:47:45;;;;;;;105.00;71.20;;;3.20;99.90;;;;;;4956989;28;20134;-64
2021/03/20 07:50:20;;;;;;;99.57;67.10;;;3.40;99.90;;;;;;4963410;28;20457;-72
2021/03/20 07:53:02;;;;;;;89.18;62.58;;;3.60;99.90;;;;;;4995382;28;20027;-72
2021/03/20 07:55:34;;;;;;;84.90;56.85;;;3.90;99.90;;;;;;4994879;28;20030;-66
2021/03/20 07:58:02;;;;;;;80.85;55.83;;;3.90;99.90;;;;;;4995152;28;20109;-72
2021/03/20 08:00:36;;;;;;;85.75;56.67;;;3.90;99.90;;;;;;4994773;28;20085;-67
2021/03/20 08:03:16;;;;;;;77.45;53.13;;;3.90;99.90;;;;;;4994678;28;20033;-65
2021/03/20 08:05:42;;;;;;;76.57;54.55;;;4.20;99.90;;;;;;4996389;28;20019;-72
2021/03/20 08:08:20;;;;;;;73.35;51.55;;;4.30;99.90;;;;;;4996899;28;20439;-72
2021/03/20 08:10:49;;;;;;;72.18;50.40;;;4.40;99.90;;;;;;4999469;28;20073;-72
2021/03/20 08:13:15;;;;;;;93.97;57.75;;;4.40;99.90;;;;;;4998224;28;20038;-65
2021/03/20 08:15:51;;;;;;;103.60;67.32;;;4.70;99.90;;;;;;4999508;28;20372;-64
2021/03/20 08:18:23;;;;;;;83.13;57.83;;;4.90;99.90;;;;;;4998839;28;20027;-72
2021/03/20 08:21:04;;;;;;;84.18;59.75;;;5.20;99.90;;;;;;4996633;28;20034;-72
2021/03/20 08:23:38;;;;;;;81.70;60.17;;;5.40;99.90;;;;;;4998201;28;20204;-65
2021/03/20 08:26:33;;;;;;;80.30;57.78;;;5.40;99.90;;;;;;4998748;28;20042;-68
2021/03/20 08:29:19;;;;;;;78.28;56.47;;;5.50;98.80;;;;;;4998498;28;20118;-73
2021/03/20 08:32:24;;;;;;;78.13;57.72;;;5.40;99.70;;;;;;4987167;28;20133;-73
2021/03/20 08:34:59;;;;;;;92.05;66.63;;;5.60;99.20;;;;;;4995776;28;20035;-65
2021/03/20 08:37:34;;;;;;;99.78;71.18;;;5.60;99.20;;;;;;4999131;28;20018;-72
2021/03/20 08:40:14;;;;;;;89.88;65.05;;;5.60;99.90;;;;;;4997163;28;20465;-66
2021/03/20 08:42:58;;;;;;;93.85;65.60;;;5.90;99.70;;;;;;4998509;28;20031;-68
2021/03/20 08:45:36;;;;;;;96.07;68.68;;;6.10;99.70;;;;;;4998081;28;20018;-75
2021/03/20 08:48:21;;;;;;;110.93;79.68;;;6.20;99.90;;;;;;4998775;28;20026;-67
2021/03/20 08:50:53;;;;;;;98.38;70.63;;;6.20;98.50;;;;;;4998587;28;20081;-73
2021/03/20 08:53:30;;;;;;;88.55;63.25;;;6.00;98.60;;;;;;4997130;28;20039;-73
2021/03/20 08:56:02;;;;;;;94.80;65.53;;;6.20;98.70;;;;;;4997796;28;20054;-66
2021/03/20 08:58:31;;;;;;;91.00;65.10;;;6.40;98.70;;;;;;4998231;28;20029;-73
2021/03/20 09:01:02;;;;;;;98.93;70.82;;;6.50;98.30;;;;;;4997863;28;20025;-73
2021/03/20 09:03:45;;;;;;;92.78;67.07;;;6.80;99.40;;;;;;4998908;28;20030;-66
2021/03/20 09:06:20;;;;;;;85.05;60.28;;;7.10;99.90;;;;;;4997837;28;20022;-66
2021/03/20 09:08:50;;;;;;;86.95;62.45;;;7.10;97.40;;;;;;4998382;28;20105;-65
2021/03/20 09:12:00;;;;;;;85.82;61.40;;;7.20;97.90;;;;;;4998715;28;20030;-65
2021/03/20 09:14:42;;;;;;;89.32;61.25;;;7.60;98.40;;;;;;4974316;28;20019;-65
2021/03/20 09:17:28;;;;;;;85.80;63.25;;;7.70;96.40;;;;;;4977230;28;20607;-64
2021/03/20 09:20:04;;;;;;;84.55;60.65;;;7.90;98.40;;;;;;4949720;28;20043;-63
2021/03/20 09:22:32;;;;;;;81.18;58.47;;;8.50;98.40;;;;;;4972820;28;20045;-63
2021/03/20 09:25:04;;;;;;;78.97;54.80;;;8.80;96.30;;;;;;4958330;28;20034;-63
2021/03/20 09:28:08;;;;;;;75.15;55.10;;;9.10;97.20;;;;;;4959569;29;20027;-70
2021/03/20 09:30:38;;;;;;;71.72;52.15;;;9.50;95.60;;;;;;4958090;29;20062;-65
2021/03/20 09:33:14;;;;;;;67.75;49.47;;;9.40;93.50;;;;;;4967344;28;20047;-68
2021/03/20 09:35:45;;;;;;;70.22;48.15;;;;;;;;;;4975817;28;20031;-66
2021/03/20 09:38:12;;;;;;;67.97;51.05;;;9.30;91.10;;;;;;4977549;28;20058;-64
2021/03/20 09:40:48;;;;;;;68.13;48.55;;;8.90;93.00;;;;;;4976173;28;20030;-64
2021/03/20 09:43:27;;;;;;;66.05;46.65;;;9.00;93.00;;;;;;4977636;28;20038;-65
2021/03/20 09:46:30;;;;;;;63.38;46.00;;;9.20;92.30;;;;;;4979060;28;20085;-65
2021/03/20 09:48:56;;;;;;;63.15;47.85;;;9.30;92.50;;;;;;4994854;28;20031;-65
2021/03/20 09:54:25;;;;;;;57.00;42.70;;;9.90;90.60;;;;;;4995299;28;20085;-65
2021/03/20 09:57:00;;;;;;;58.13;43.22;;;10.00;90.70;;;;;;4999395;28;20026;-66
2021/03/20 09:59:35;;;;;;;58.13;39.58;;;10.30;91.40;;;;;;4999317;28;20452;-64
2021/03/20 10:02:02;;;;;;;;;;;10.50;90.90;;;;;;4999826;28;20046;-67
2021/03/20 10:04:27;;;;;;;43.80;32.05;;;10.60;89.70;;;;;;4999420;28;19913;-71
2021/03/20 10:07:17;;;;;;;41.17;32.40;;;10.70;87.70;;;;;;5001589;28;20006;-68
2021/03/20 10:10:10;;;;;;;39.15;30.15;;;11.00;91.10;;;;;;5000791;28;20076;-72
2021/03/20 10:12:42;;;;;;;36.92;28.83;;;11.00;88.50;;;;;;5001729;28;20030;-66
2021/03/20 10:15:13;;;;;;;37.53;29.42;;;11.40;84.20;;;;;;5000637;28;20030;-64
2021/03/20 10:18:11;;;;;;;45.47;33.15;;;11.50;86.40;;;;;;4999299;28;20030;-65
2021/03/20 10:20:56;;;;;;;37.03;28.42;;;11.70;82.20;;;;;;4997473;28;20065;-64
2021/03/20 10:23:42;;;;;;;43.20;30.13;;;11.80;83.20;;;;;;4997592;28;20117;-66
2021/03/20 10:26:25;;;;;;;44.08;31.15;;;12.00;83.50;;;;;;4997908;28;20030;-73
2021/03/20 10:29:00;;;;;;;37.30;29.35;;;12.50;81.90;;;;;;4998353;28;20022;-64
2021/03/20 10:31:29;;;;;;;42.83;31.08;;;12.60;80.70;;;;;;4998556;28;20084;-65
2021/03/20 10:34:11;;;;;;;43.88;32.42;;;12.30;81.20;;;;;;4999009;28;20046;-65
2021/03/20 10:36:48;;;;;;;41.40;31.92;;;12.20;82.90;;;;;;4994554;28;20026;-70
2021/03/20 10:39:34;;;;;;;37.10;30.08;;;12.50;82.30;;;;;;4999052;28;20471;-71
2021/03/20 10:42:17;;;;;;;34.63;28.55;;;11.90;81.40;;;;;;4996199;28;20022;-67
2021/03/20 10:44:46;;;;;;;31.75;24.75;;;12.00;81.70;;;;;;4999669;28;20026;-71
2021/03/20 10:47:12;;;;;;;32.53;23.95;;;11.90;78.30;;;;;;4998144;28;20022;-68
2021/03/20 10:50:14;;;;;;;31.10;22.20;;;12.00;78.50;;;;;;4999449;28;20080;-73
2021/03/20 10:52:42;;;;;;;25.38;16.80;;;12.30;77.40;;;;;;4993291;28;20060;-65
2021/03/20 10:55:24;;;;;;;30.10;20.20;;;12.20;64.30;;;;;;4996779;28;20057;-68
2021/03/20 10:57:52;;;;;;;24.23;17.65;;;11.70;79.00;;;;;;4996536;28;20547;-67
2021/03/20 11:00:24;;;;;;;23.58;17.35;;;12.20;72.80;;;;;;4997549;28;20023;-70
2021/03/20 11:02:51;;;;;;;23.55;17.92;;;11.70;62.30;;;;;;4997693;28;20106;-69
2021/03/20 11:05:22;;;;;;;27.65;19.52;;;12.20;74.60;;;;;;4995913;28;20030;-70
2021/03/20 11:08:02;;;;;;;20.90;15.65;;;12.40;70.60;;;;;;4996286;28;20018;-70
2021/03/20 11:10:32;;;;;;;21.98;17.52;;;11.90;65.30;;;;;;4995128;28;20354;-64
2021/03/20 11:13:22;;;;;;;24.45;17.45;;;11.30;72.60;;;;;;4995703;28;20026;-70
2021/03/20 11:15:51;;;;;;;21.05;16.95;;;11.50;74.30;;;;;;4995121;28;20026;-71
2021/03/20 11:18:39;;;;;;;22.77;16.83;;;11.20;70.70;;;;;;4997187;28;20027;-65
2021/03/20 11:21:28;;;;;;;24.17;17.30;;;10.60;68.20;;;;;;5000771;28;20058;-70
2021/03/20 11:24:04;;;;;;;27.77;17.70;;;10.10;66.70;;;;;;5000423;28;20026;-70
2021/03/20 11:26:56;;;;;;;23.15;15.13;;;10.00;66.30;;;;;;4997878;28;20027;-71
2021/03/20 11:29:28;;;;;;;25.08;17.20;;;10.70;67.50;;;;;;4994851;28;20113;-70
2021/03/20 11:32:01;;;;;;;18.52;14.48;;;10.80;69.90;;;;;;4997442;28;20460;-71
2021/03/20 11:34:37;;;;;;;16.92;13.32;;;10.40;74.00;;;;;;4995160;28;20027;-72
2021/03/20 11:37:05;;;;;;;19.38;14.70;;;10.20;74.30;;;;;;4996902;28;20029;-71
2021/03/20 11:39:31;;;;;;;15.98;12.90;;;10.10;78.60;;;;;;4995035;28;20129;-71
2021/03/20 11:42:07;;;;;;;19.23;13.93;;;10.90;77.90;;;;;;4994965;28;20045;-71
2021/03/20 11:44:41;;;;;;;17.92;14.05;;;10.80;61.70;;;;;;4994543;28;20358;-69
2021/03/20 11:47:22;;;;;;;17.05;13.05;;;10.40;66.40;;;;;;4994708;28;20022;-71
2021/03/20 11:49:54;;;;;;;18.13;13.82;;;10.10;69.20;;;;;;4994937;28;20148;-63
2021/03/20 11:52:42;;;;;;;19.27;14.52;;;9.80;69.80;;;;;;4994583;28;20500;-71
2021/03/20 11:55:41;;;;;;;30.05;21.15;;;9.50;69.90;;;;;;4983720;28;20182;-71
2021/03/20 11:58:18;;;;;;;17.65;13.40;;;9.30;71.60;;;;;;4993642;28;20034;-71
2021/03/20 12:00:47;;;;;;;19.55;15.27;;;9.20;78.80;;;;;;4994571;28;20026;-62
2021/03/20 12:03:22;;;;;;;19.65;14.43;;;10.00;68.30;;;;;;4994334;28;20412;-70
2021/03/20 12:06:18;;;;;;;19.35;14.38;;;10.80;76.70;;;;;;4995377;28;20023;-71
2021/03/20 12:08:54;;;;;;;43.90;24.70;;;10.80;64.10;;;;;;4992439;28;20038;-71
2021/03/20 12:11:42;;;;;;;19.55;14.45;;;11.50;70.00;;;;;;4994176;28;20062;-71
2021/03/20 12:14:33;;;;;;;15.60;12.02;;;11.50;63.80;;;;;;4994166;28;20487;-71
2021/03/20 12:17:25;;;;;;;16.10;12.75;;;12.00;67.70;;;;;;4996361;28;20018;-71
2021/03/20 12:19:51;;;;;;;11.88;10.10;;;12.60;66.60;;;;;;4995001;28;20022;-71
2021/03/20 12:22:34;;;;;;;13.05;9.98;;;13.20;62.80;;;;;;4994653;28;20099;-71
2021/03/20 12:25:37;;;;;;;14.70;11.57;;;13.10;53.40;;;;;;4995028;28;20030;-71
2021/03/20 12:28:26;;;;;;;13.68;10.95;;;12.50;57.60;;;;;;4995472;28;20427;-71
2021/03/20 12:31:14;;;;;;;11.85;9.75;;;11.80;62.20;;;;;;4998176;28;20476;-71
2021/03/20 12:33:45;;;;;;;16.90;12.20;;;11.30;55.90;;;;;;4996474;28;20169;-71
2021/03/20 12:36:30;;;;;;;22.25;15.63;;;10.80;61.40;;;;;;4994426;28;20037;-63
2021/03/20 12:38:56;;;;;;;;;;;11.10;66.20;;;;;;4996718;28;20030;-71
2021/03/20 12:41:24;;;;;;;14.48;10.80;;;11.20;58.30;;;;;;4995426;28;20324;-63
2021/03/20 12:44:10;;;;;;;14.65;10.23;;;11.20;57.90;;;;;;4995827;28;20030;-71
2021/03/20 12:46:38;;;;;;;13.20;10.15;;;11.60;65.80;;;;;;4994441;28;20050;-71
2021/03/20 12:49:04;;;;;;;14.68;10.98;;;11.90;63.30;;;;;;4995837;28;20547;-71
2021/03/20 12:51:31;;;;;;;13.60;9.45;;;12.00;63.70;;;;;;4994267;28;20074;-67
2021/03/20 12:53:57;;;;;;;39.17;18.55;;;12.40;64.00;;;;;;4996152;28;20057;-71
2021/03/20 12:56:23;;;;;;;13.02;9.82;;;12.30;56.90;;;;;;4997630;28;20105;-69
2021/03/20 12:58:49;;;;;;;16.80;11.25;;;12.90;58.30;;;;;;4997906;28;20065;-72
2021/03/20 13:01:15;;;;;;;162.55;88.32;;;12.70;56.00;;;;;;4997463;28;20019;-69
2021/03/20 13:03:41;;;;;;;21.52;15.82;;;12.90;56.20;;;;;;4997682;28;20528;-63
2021/03/20 13:06:07;;;;;;;13.70;10.93;;;12.80;56.20;;;;;;4997507;28;20050;-71
2021/03/20 13:08:36;;;;;;;13.98;10.15;;;12.60;57.00;;;;;;4997506;28;20421;-70
2021/03/20 13:11:03;;;;;;;12.80;9.70;;;12.80;59.20;;;;;;4997224;28;20022;-62
2021/03/20 13:13:30;;;;;;;14.02;11.40;;;12.60;59.40;;;;;;4997960;28;20022;-71
2021/03/20 13:15:56;;;;;;;14.13;11.75;;;12.10;56.00;;;;;;4997251;28;20026;-64
2021/03/20 13:18:22;;;;;;;12.00;10.10;;;12.10;61.40;;;;;;4998651;28;20019;-71